createdAt,value
2017-09-22T00:01:09.131Z,8.90
2017-09-22T00:03:37.894Z,14.63
2017-09-22T00:06:06.646Z,8.70
2017-09-22T00:08:38.854Z,8.13
2017-09-22T00:11:07.560Z,10.00
2017-09-22T00:13:37.119Z,9.20
2017-09-22T00:16:05.687Z,6.77
2017-09-22T00:18:37.953Z,8.50
2017-09-22T00:21:06.686Z,9.50
2017-09-22T00:23:35.388Z,8.83
2017-09-22T00:26:04.121Z,7.80
2017-09-22T00:28:34.808Z,9.67
2017-09-22T00:31:03.855Z,8.83
2017-09-22T00:33:32.603Z,15.50
2017-09-22T00:36:01.335Z,14.40
2017-09-22T00:38:30.254Z,8.83
2017-09-22T00:40:58.941Z,8.47
2017-09-22T00:43:27.752Z,8.73
2017-09-22T00:45:56.502Z,13.93
2017-09-22T00:48:25.276Z,11.10
2017-09-22T00:50:54.093Z,10.43
2017-09-22T00:53:22.812Z,10.57
2017-09-22T00:55:51.624Z,7.63
2017-09-22T00:58:20.431Z,11.20
2017-09-22T01:00:49.168Z,10.73
2017-09-22T01:03:17.977Z,10.97
2017-09-22T01:05:46.788Z,10.03
2017-09-22T01:08:15.543Z,8.77
2017-09-22T01:10:44.282Z,7.90
2017-09-22T01:13:12.994Z,7.77
2017-09-22T01:15:41.855Z,10.17
2017-09-22T01:18:10.580Z,11.70
2017-09-22T01:20:39.358Z,8.23
2017-09-22T01:23:08.103Z,9.83
2017-09-22T01:25:37.379Z,11.10
2017-09-22T01:28:07.994Z,11.63
2017-09-22T01:30:36.759Z,9.47
2017-09-22T01:33:05.622Z,9.67
2017-09-22T01:35:34.377Z,13.80
2017-09-22T01:38:03.150Z,11.13
2017-09-22T01:40:31.885Z,11.40
2017-09-22T01:43:00.625Z,11.30
2017-09-22T01:45:29.346Z,10.53
2017-09-22T01:47:58.147Z,10.87
2017-09-22T01:50:26.878Z,16.83
2017-09-22T01:52:55.673Z,12.90
2017-09-22T01:55:24.425Z,12.63
2017-09-22T01:57:53.128Z,11.13
2017-09-22T02:00:21.943Z,13.93
2017-09-22T02:02:50.699Z,18.03
2017-09-22T02:05:19.445Z,10.77
2017-09-22T02:07:48.250Z,9.70
2017-09-22T02:10:17.027Z,9.80
2017-09-22T02:12:45.790Z,12.23
2017-09-22T02:15:14.464Z,14.80
2017-09-22T02:17:43.186Z,16.90
2017-09-22T02:20:11.991Z,15.20
2017-09-22T02:22:40.720Z,12.27
2017-09-22T02:25:10.317Z,17.27
2017-09-22T02:27:39.158Z,14.13
2017-09-22T02:30:07.880Z,13.73
2017-09-22T02:32:36.694Z,11.77
2017-09-22T02:35:05.463Z,12.87
2017-09-22T02:37:34.272Z,10.90
2017-09-22T02:40:03.071Z,11.40
2017-09-22T02:42:31.840Z,12.00
2017-09-22T02:45:00.597Z,13.83
2017-09-22T02:47:29.409Z,12.47
2017-09-22T02:49:58.119Z,10.90
2017-09-22T02:52:26.932Z,12.00
2017-09-22T02:54:55.692Z,13.07
2017-09-22T02:57:24.481Z,15.27
2017-09-22T02:59:53.303Z,14.03
2017-09-22T03:02:22.045Z,13.33
2017-09-22T03:04:50.785Z,15.47
2017-09-22T03:07:19.497Z,14.83
2017-09-22T03:09:48.360Z,11.07
2017-09-22T03:12:17.065Z,14.30
2017-09-22T03:14:45.925Z,12.70
2017-09-22T03:17:14.699Z,12.97
2017-09-22T03:19:43.525Z,12.67
2017-09-22T03:22:12.342Z,14.77
2017-09-22T03:24:41.124Z,10.23
2017-09-22T03:27:09.884Z,11.20
2017-09-22T03:29:38.636Z,13.57
2017-09-22T03:32:07.397Z,16.33
2017-09-22T03:34:36.230Z,20.07
2017-09-22T03:37:05.020Z,14.67
2017-09-22T03:39:33.800Z,14.50
2017-09-22T03:42:02.606Z,11.00
2017-09-22T03:44:31.322Z,10.47
2017-09-22T03:47:00.081Z,11.70
2017-09-22T03:49:28.810Z,11.50
2017-09-22T03:51:57.516Z,27.30
2017-09-22T03:54:26.276Z,9.23
2017-09-22T03:56:55.045Z,10.43
2017-09-22T03:59:23.762Z,9.03
2017-09-22T04:01:52.580Z,8.73
2017-09-22T04:04:21.378Z,10.37
2017-09-22T04:06:50.237Z,8.53
2017-09-22T04:09:18.998Z,9.87
2017-09-22T04:11:47.792Z,8.20
2017-09-22T04:14:16.512Z,8.70
2017-09-22T04:16:45.267Z,12.33
2017-09-22T04:19:14.392Z,9.23
2017-09-22T04:21:43.173Z,8.50
2017-09-22T04:24:11.953Z,12.60
2017-09-22T04:26:40.532Z,9.37
2017-09-22T04:29:09.241Z,11.47
2017-09-22T04:31:38.077Z,7.23
2017-09-22T04:34:08.502Z,7.87
2017-09-22T04:36:37.238Z,9.17
2017-09-22T04:39:05.700Z,8.90
2017-09-22T04:41:34.411Z,8.23
2017-09-22T04:44:03.131Z,9.00
2017-09-22T04:46:31.897Z,17.37
2017-09-22T04:49:00.801Z,10.20
2017-09-22T04:51:30.126Z,8.70
2017-09-22T04:53:58.904Z,11.53
2017-09-22T04:56:27.576Z,8.63
2017-09-22T04:58:56.334Z,8.03
2017-09-22T05:01:25.075Z,8.37
2017-09-22T05:03:53.794Z,7.60
2017-09-22T05:06:22.598Z,8.53
2017-09-22T05:08:51.404Z,8.97
2017-09-22T05:11:31.371Z,8.47
2017-09-22T05:14:00.444Z,11.50
2017-09-22T05:16:29.236Z,8.13
2017-09-22T05:18:58.076Z,8.00
2017-09-22T05:21:26.901Z,8.20
2017-09-22T05:23:55.827Z,8.83
2017-09-22T05:26:24.755Z,8.53
2017-09-22T05:28:53.526Z,10.23
2017-09-22T05:31:22.384Z,9.33
2017-09-22T05:33:51.324Z,14.13
2017-09-22T05:36:20.076Z,9.33
2017-09-22T05:38:48.955Z,9.00
2017-09-22T05:41:18.209Z,11.10
2017-09-22T05:43:47.175Z,9.80
2017-09-22T05:46:16.003Z,11.33
2017-09-22T05:48:44.828Z,9.57
2017-09-22T05:51:13.795Z,10.77
2017-09-22T05:53:42.598Z,10.23
2017-09-22T05:56:11.439Z,14.53
2017-09-22T05:58:40.391Z,9.07
2017-09-22T06:01:09.351Z,10.07
2017-09-22T06:03:38.166Z,13.30
2017-09-22T06:06:07.068Z,9.03
2017-09-22T06:08:38.541Z,8.97
2017-09-22T06:11:07.344Z,10.10
2017-09-22T06:13:36.163Z,13.23
2017-09-22T06:16:04.881Z,8.43
2017-09-22T06:18:37.273Z,8.93
2017-09-22T06:21:06.040Z,12.13
2017-09-22T06:23:34.895Z,8.20
2017-09-22T06:26:03.746Z,9.03
2017-09-22T06:28:36.073Z,8.07
2017-09-22T06:31:04.907Z,9.60
2017-09-22T06:33:33.724Z,9.27
2017-09-22T06:36:02.516Z,14.43
2017-09-22T06:38:31.438Z,9.63
2017-09-22T06:41:00.316Z,10.20
2017-09-22T06:43:29.192Z,8.73
2017-09-22T06:45:58.061Z,10.37
2017-09-22T06:48:27.002Z,10.53
2017-09-22T06:50:55.908Z,10.90
2017-09-22T06:53:24.830Z,9.93
2017-09-22T06:55:53.801Z,11.67
2017-09-22T06:58:22.621Z,18.10
2017-09-22T07:00:51.580Z,10.53
2017-09-22T07:03:20.477Z,12.50
2017-09-22T07:05:49.359Z,13.70
2017-09-22T07:08:18.227Z,12.00
2017-09-22T07:10:47.070Z,12.57
2017-09-22T07:13:15.939Z,17.10
2017-09-22T07:15:44.892Z,13.87
2017-09-22T07:18:13.733Z,13.03
2017-09-22T07:20:42.608Z,12.70
2017-09-22T07:23:11.549Z,13.40
2017-09-22T07:25:40.438Z,15.37
2017-09-22T07:28:09.300Z,13.73
2017-09-22T07:30:38.187Z,13.90
2017-09-22T07:33:07.082Z,15.37
2017-09-22T07:35:35.947Z,17.30
2017-09-22T07:38:04.909Z,17.37
2017-09-22T07:40:33.768Z,17.17
2017-09-22T07:43:02.586Z,18.50
2017-09-22T07:45:31.500Z,18.03
2017-09-22T07:48:00.426Z,16.93
2017-09-22T07:50:29.516Z,20.00
2017-09-22T07:52:58.370Z,14.43
2017-09-22T07:55:27.414Z,16.33
2017-09-22T07:57:56.244Z,14.60
2017-09-22T08:00:25.105Z,17.47
2017-09-22T08:02:53.940Z,16.17
2017-09-22T08:05:22.918Z,20.40
2017-09-22T08:07:51.763Z,18.27
2017-09-22T08:10:20.658Z,24.50
2017-09-22T08:12:49.466Z,21.20
2017-09-22T08:15:18.295Z,18.47
2017-09-22T08:17:47.252Z,20.80
2017-09-22T08:20:16.100Z,18.03
2017-09-22T08:22:44.861Z,22.57
2017-09-22T08:25:13.668Z,24.37
2017-09-22T08:27:42.535Z,20.43
2017-09-22T08:30:11.329Z,21.60
2017-09-22T08:32:40.167Z,18.50
2017-09-22T08:35:09.081Z,22.93
2017-09-22T08:37:37.924Z,25.30
2017-09-22T08:40:06.809Z,21.20
2017-09-22T08:42:35.508Z,23.20
2017-09-22T08:45:05.585Z,19.87
2017-09-22T08:47:34.457Z,24.43
2017-09-22T08:50:03.390Z,23.73
2017-09-22T08:52:32.402Z,21.07
2017-09-22T08:55:01.228Z,25.03
2017-09-22T08:57:30.134Z,23.37
2017-09-22T08:59:59.013Z,30.63
2017-09-22T09:02:27.869Z,24.97
2017-09-22T09:04:56.703Z,26.70
2017-09-22T09:07:25.545Z,19.73
2017-09-22T09:09:54.399Z,30.03
2017-09-22T09:12:23.349Z,23.53
2017-09-22T09:14:52.345Z,22.17
2017-09-22T09:17:21.284Z,26.57
2017-09-22T09:19:50.154Z,19.00
2017-09-22T09:22:19.054Z,20.63
2017-09-22T09:24:47.951Z,20.83
2017-09-22T09:27:16.823Z,24.10
2017-09-22T09:29:45.578Z,36.03
2017-09-22T09:32:14.503Z,31.43
2017-09-22T09:34:43.455Z,19.47
2017-09-22T09:37:14.141Z,19.67
2017-09-22T09:39:42.961Z,22.13
2017-09-22T09:42:11.771Z,20.40
2017-09-22T09:44:40.699Z,20.57
2017-09-22T09:47:09.639Z,20.17
2017-09-22T09:49:38.526Z,19.83
2017-09-22T09:52:07.454Z,20.57
2017-09-22T09:54:36.366Z,17.87
2017-09-22T09:57:05.209Z,23.20
2017-09-22T09:59:34.126Z,15.77
2017-09-22T10:02:02.960Z,19.60
2017-09-22T10:04:31.731Z,16.67
2017-09-22T10:07:00.362Z,18.10
2017-09-22T10:09:29.187Z,17.43
2017-09-22T10:11:58.050Z,16.77
2017-09-22T10:14:26.881Z,19.27
2017-09-22T10:16:55.718Z,17.13
2017-09-22T10:19:24.878Z,18.50
2017-09-22T10:21:53.905Z,16.13
2017-09-22T10:24:22.514Z,19.60
2017-09-22T10:26:51.362Z,21.63
2017-09-22T10:29:20.161Z,20.20
2017-09-22T10:31:48.948Z,15.00
2017-09-22T10:34:17.747Z,14.27
2017-09-22T10:36:46.618Z,18.87
2017-09-22T10:39:15.454Z,15.83
2017-09-22T10:41:44.284Z,14.47
2017-09-22T10:44:13.091Z,20.03
2017-09-22T10:46:41.839Z,12.10
2017-09-22T10:49:10.679Z,12.37
2017-09-22T10:51:39.409Z,17.60
2017-09-22T10:54:08.182Z,15.37
2017-09-22T10:56:37.015Z,15.60
2017-09-22T10:59:05.894Z,13.67
2017-09-22T11:01:34.760Z,19.03
2017-09-22T11:04:03.514Z,14.10
2017-09-22T11:06:32.353Z,11.10
2017-09-22T11:09:01.142Z,12.87
2017-09-22T11:11:29.900Z,13.73
2017-09-22T11:13:58.773Z,11.70
2017-09-22T11:16:27.612Z,11.70
2017-09-22T11:18:56.422Z,9.73
2017-09-22T11:21:25.149Z,9.90
2017-09-22T11:23:53.996Z,14.37
2017-09-22T11:26:22.737Z,12.03
2017-09-22T11:28:51.559Z,12.73
2017-09-22T11:31:19.198Z,11.03
2017-09-22T11:33:47.218Z,14.13
2017-09-22T11:36:16.003Z,14.13
2017-09-22T11:38:44.729Z,12.90
2017-09-22T11:41:13.540Z,12.20
2017-09-22T11:43:42.398Z,9.47
2017-09-22T11:46:11.256Z,10.93
2017-09-22T11:48:40.012Z,11.90
2017-09-22T11:51:08.792Z,9.00
2017-09-22T11:53:37.534Z,8.37
2017-09-22T11:56:06.296Z,8.40
2017-09-22T11:58:39.226Z,9.03
2017-09-22T12:01:07.983Z,8.40
2017-09-22T12:03:36.701Z,16.47
2017-09-22T12:06:05.418Z,8.97
2017-09-22T12:08:37.016Z,14.87
2017-09-22T12:11:05.759Z,9.57
2017-09-22T12:13:34.541Z,12.10
2017-09-22T12:16:03.268Z,10.13
2017-09-22T12:18:36.542Z,19.23
2017-09-22T12:21:05.302Z,21.33
2017-09-22T12:23:34.168Z,19.53
2017-09-22T12:26:03.289Z,8.20
2017-09-22T12:28:38.420Z,10.23
2017-09-22T12:31:07.215Z,8.47
2017-09-22T12:33:35.938Z,9.13
2017-09-22T12:36:04.563Z,11.83
2017-09-22T12:38:36.225Z,8.97
2017-09-22T12:41:04.998Z,7.07
2017-09-22T12:43:33.794Z,9.13
2017-09-22T12:46:02.596Z,6.70
2017-09-22T12:48:34.766Z,7.43
2017-09-22T12:51:03.509Z,7.90
2017-09-22T12:53:32.269Z,7.00
2017-09-22T12:56:01.003Z,15.70
2017-09-22T12:58:29.867Z,6.40
2017-09-22T13:00:58.599Z,6.83
2017-09-22T13:03:27.222Z,5.90
2017-09-22T13:05:56.060Z,9.90
2017-09-22T13:08:24.744Z,7.77
2017-09-22T13:10:53.442Z,10.37
2017-09-22T13:13:22.530Z,7.00
2017-09-22T13:15:51.354Z,13.83
2017-09-22T13:18:20.096Z,10.40
2017-09-22T13:20:48.875Z,12.67
2017-09-22T13:23:17.610Z,9.63
2017-09-22T13:25:46.447Z,24.23
2017-09-22T13:28:15.197Z,18.70
2017-09-22T13:30:44.026Z,6.33
2017-09-22T13:33:12.784Z,4.10
2017-09-22T13:35:41.506Z,4.93
2017-09-22T13:38:10.246Z,10.23
2017-09-22T13:40:39.145Z,5.80
2017-09-22T13:43:07.855Z,8.30
2017-09-22T13:45:36.532Z,12.60
2017-09-22T13:48:05.340Z,5.17
2017-09-22T13:50:34.105Z,8.63
2017-09-22T13:53:02.915Z,11.90
2017-09-22T13:55:31.773Z,8.67
2017-09-22T13:58:00.790Z,4.97
2017-09-22T14:00:29.520Z,5.77
2017-09-22T14:02:58.430Z,10.87
2017-09-22T14:05:27.165Z,5.20
2017-09-22T14:07:55.909Z,3.67
2017-09-22T14:10:24.771Z,7.60
2017-09-22T14:12:53.574Z,5.37
2017-09-22T14:15:22.256Z,4.00
2017-09-22T14:17:51.097Z,3.80
2017-09-22T14:20:19.904Z,3.80
2017-09-22T14:22:48.646Z,11.90
2017-09-22T14:25:17.459Z,4.00
2017-09-22T14:27:46.396Z,6.80
2017-09-22T14:30:15.215Z,6.03
2017-09-22T14:32:44.015Z,4.43
2017-09-22T14:35:12.795Z,6.43
2017-09-22T14:37:41.608Z,3.53
2017-09-22T14:40:10.333Z,3.37
2017-09-22T14:42:39.103Z,7.97
2017-09-22T14:45:07.869Z,5.80
2017-09-22T14:47:36.713Z,5.57
2017-09-22T14:50:05.469Z,8.00
2017-09-22T14:52:34.194Z,7.50
2017-09-22T14:55:02.994Z,7.00
2017-09-22T14:57:31.739Z,7.30
2017-09-22T15:00:00.496Z,8.70
2017-09-22T15:02:29.265Z,9.03
2017-09-22T15:04:58.163Z,7.40
2017-09-22T15:07:26.919Z,7.13
2017-09-22T15:09:55.739Z,8.47
2017-09-22T15:12:24.525Z,7.00
2017-09-22T15:14:53.316Z,9.70
2017-09-22T15:17:22.186Z,8.53
2017-09-22T15:19:51.039Z,9.70
2017-09-22T15:22:19.945Z,10.00
2017-09-22T15:24:48.770Z,8.33
2017-09-22T15:27:17.523Z,7.67
2017-09-22T15:29:46.360Z,7.37
2017-09-22T15:32:15.191Z,4.90
2017-09-22T15:34:44.103Z,6.13
2017-09-22T15:37:12.886Z,7.17
2017-09-22T15:39:41.689Z,13.37
2017-09-22T15:42:10.538Z,5.50
2017-09-22T15:44:39.311Z,4.83
2017-09-22T15:47:08.257Z,5.20
2017-09-22T15:49:37.095Z,8.33
2017-09-22T15:52:06.104Z,8.70
2017-09-22T15:54:34.982Z,9.23
2017-09-22T15:57:03.830Z,11.67
2017-09-22T15:59:32.577Z,6.20
2017-09-22T16:02:01.438Z,14.50
2017-09-22T16:04:30.266Z,9.23
2017-09-22T16:06:59.243Z,19.03
2017-09-22T16:09:28.162Z,10.43
2017-09-22T16:11:57.019Z,13.63
2017-09-22T16:14:25.776Z,11.97
2017-09-22T16:16:54.494Z,9.53
2017-09-22T16:19:23.318Z,14.20
2017-09-22T16:21:52.031Z,15.17
2017-09-22T16:24:20.824Z,25.13
2017-09-22T16:26:49.674Z,8.77
2017-09-22T16:29:18.532Z,22.30
2017-09-22T16:31:47.429Z,12.37
2017-09-22T16:34:16.285Z,9.47
2017-09-22T16:36:45.278Z,6.30
2017-09-22T16:39:14.205Z,10.27
2017-09-22T16:41:43.352Z,6.23
2017-09-22T16:44:12.250Z,11.73
2017-09-22T16:46:41.103Z,12.30
2017-09-22T16:49:14.098Z,6.50
2017-09-22T16:51:42.913Z,11.13
2017-09-22T16:54:11.887Z,9.40
2017-09-22T16:56:40.740Z,6.87
2017-09-22T16:59:09.630Z,13.97
2017-09-22T17:01:38.520Z,11.57
2017-09-22T17:04:07.518Z,11.60
2017-09-22T17:06:36.438Z,9.37
2017-09-22T17:09:04.882Z,10.50
2017-09-22T17:11:33.860Z,6.50
2017-09-22T17:14:02.820Z,5.93
2017-09-22T17:16:33.129Z,7.13
2017-09-22T17:19:02.208Z,11.00
2017-09-22T17:21:31.245Z,12.97
2017-09-22T17:24:00.223Z,13.63
2017-09-22T17:26:29.329Z,8.93
2017-09-22T17:28:58.238Z,10.90
2017-09-22T17:31:27.285Z,11.10
2017-09-22T17:33:57.431Z,6.73
2017-09-22T17:36:27.309Z,10.13
2017-09-22T17:38:57.485Z,12.30
2017-09-22T17:41:26.745Z,16.30
2017-09-22T17:43:55.656Z,7.13
2017-09-22T17:46:24.764Z,8.00
2017-09-22T17:48:53.860Z,14.30
2017-09-22T17:51:23.674Z,7.27
2017-09-22T17:56:37.816Z,8.03
2017-09-22T17:59:06.912Z,13.47
2017-09-22T18:01:36.546Z,15.40
2017-09-22T18:04:06.562Z,10.83
2017-09-22T18:09:18.967Z,11.00
2017-09-22T18:11:48.999Z,7.67
2017-09-22T18:14:19.898Z,5.77
2017-09-22T18:16:55.056Z,4.90
2017-09-22T18:19:29.782Z,4.93
2017-09-22T18:22:06.698Z,4.63
2017-09-22T18:24:39.488Z,6.83
2017-09-22T18:27:16.285Z,7.47
2017-09-22T18:30:02.224Z,6.67
2017-09-22T18:32:31.404Z,6.10
2017-09-22T18:35:00.550Z,6.80
2017-09-22T18:37:37.884Z,12.43
2017-09-22T18:40:11.532Z,10.27
2017-09-22T18:42:53.819Z,8.57
2017-09-22T18:46:52.155Z,11.13
2017-09-22T18:49:26.327Z,9.77
2017-09-22T18:52:11.178Z,10.33
2017-09-22T18:54:45.212Z,5.33
2017-09-22T18:57:14.241Z,5.40
2017-09-22T18:59:46.094Z,5.57
2017-09-22T19:02:46.251Z,5.93
2017-09-22T19:05:17.712Z,10.00
2017-09-22T19:07:46.972Z,7.27
2017-09-22T19:10:15.976Z,7.53
2017-09-22T19:12:44.867Z,8.03
2017-09-22T19:15:13.845Z,5.53
2017-09-22T19:17:45.762Z,8.80
2017-09-22T19:20:16.146Z,9.80
2017-09-22T19:22:47.525Z,6.07
2017-09-22T19:25:16.320Z,3.73
2017-09-22T19:27:45.155Z,4.00
2017-09-22T19:30:13.726Z,4.27
2017-09-22T19:32:42.476Z,8.13
2017-09-22T19:35:11.121Z,4.20
2017-09-22T19:37:39.863Z,4.83
2017-09-22T19:40:08.630Z,4.40
2017-09-22T19:42:37.379Z,5.47
2017-09-22T19:45:06.151Z,4.93
2017-09-22T19:47:34.915Z,5.20
2017-09-22T19:50:03.632Z,5.40
2017-09-22T19:52:32.385Z,5.47
2017-09-22T19:55:01.101Z,6.00
2017-09-22T19:57:29.879Z,10.60
2017-09-22T19:59:58.595Z,6.33
2017-09-22T20:02:27.294Z,5.43
2017-09-22T20:04:56.092Z,6.00
2017-09-22T20:07:24.676Z,5.20
2017-09-22T20:09:53.443Z,5.20
2017-09-22T20:12:22.066Z,5.37
2017-09-22T20:14:50.712Z,5.23
2017-09-22T20:17:19.308Z,5.17
2017-09-22T20:19:48.151Z,6.27
2017-09-22T20:22:16.924Z,5.50
2017-09-22T20:24:47.286Z,5.43
2017-09-22T20:27:16.051Z,4.63
2017-09-22T20:29:44.795Z,5.13
2017-09-22T20:32:13.515Z,8.20
2017-09-22T20:34:42.232Z,6.00
2017-09-22T20:37:10.959Z,4.70
2017-09-22T20:39:39.763Z,5.60
2017-09-22T20:42:08.508Z,5.73
2017-09-22T20:44:37.289Z,4.80
2017-09-22T20:47:06.045Z,5.03
2017-09-22T20:49:34.780Z,5.07
2017-09-22T20:52:03.526Z,5.17
2017-09-22T20:54:32.312Z,5.10
2017-09-22T20:57:01.096Z,4.97
2017-09-22T20:59:29.827Z,4.33
2017-09-22T21:01:58.540Z,4.30
2017-09-22T21:04:27.309Z,4.77
2017-09-22T21:06:56.062Z,5.03
2017-09-22T21:09:24.828Z,4.23
2017-09-22T21:11:53.547Z,4.40
2017-09-22T21:14:22.255Z,5.03
2017-09-22T21:16:51.019Z,5.53
2017-09-22T21:19:19.750Z,8.03
2017-09-22T21:21:48.477Z,4.00
2017-09-22T21:24:17.262Z,6.03
2017-09-22T21:26:46.003Z,4.87
2017-09-22T21:29:14.765Z,4.53
2017-09-22T21:31:43.456Z,5.70
2017-09-22T21:34:12.196Z,6.20
2017-09-22T21:36:41.002Z,5.20
2017-09-22T21:39:09.773Z,4.83
2017-09-22T21:41:38.538Z,5.13
2017-09-22T21:44:07.275Z,5.23
2017-09-22T21:46:35.994Z,5.60
2017-09-22T21:49:04.741Z,6.37
2017-09-22T21:51:33.504Z,5.40
2017-09-22T21:54:02.224Z,6.50
2017-09-22T21:56:30.974Z,5.03
2017-09-22T21:58:59.814Z,4.63
2017-09-22T22:01:28.605Z,4.90
2017-09-22T22:04:02.824Z,4.30
2017-09-22T22:06:36.989Z,4.47
2017-09-22T22:09:05.355Z,4.80
2017-09-22T22:11:34.115Z,7.53
2017-09-22T22:14:02.783Z,4.80
2017-09-22T22:16:31.514Z,5.50
2017-09-22T22:19:00.298Z,4.93
2017-09-22T22:21:29.050Z,5.13
2017-09-22T22:23:57.779Z,4.27
2017-09-22T22:26:26.607Z,5.80
2017-09-22T22:28:55.334Z,5.17
2017-09-22T22:31:24.088Z,5.10
2017-09-22T22:33:52.943Z,4.63
2017-09-22T22:36:27.275Z,5.23
2017-09-22T22:38:55.987Z,8.07
2017-09-22T22:41:24.681Z,4.87
2017-09-22T22:43:53.422Z,6.23
2017-09-22T22:46:22.182Z,5.67
2017-09-22T22:48:50.924Z,6.20
2017-09-22T22:51:19.667Z,7.27
2017-09-22T22:53:48.414Z,4.23
2017-09-22T22:56:17.150Z,4.83
2017-09-22T22:58:45.871Z,4.40
2017-09-22T23:01:14.664Z,6.40
2017-09-22T23:03:43.391Z,7.57
2017-09-22T23:06:12.498Z,7.20
2017-09-22T23:08:41.256Z,4.50
2017-09-22T23:11:09.972Z,4.20
2017-09-22T23:13:38.732Z,4.67
2017-09-22T23:16:07.458Z,3.97
2017-09-22T23:18:37.333Z,4.63
2017-09-22T23:21:06.070Z,4.30
2017-09-22T23:23:34.853Z,4.63
2017-09-22T23:26:03.613Z,4.37
2017-09-22T23:28:37.159Z,5.00
2017-09-22T23:31:05.920Z,4.30
2017-09-22T23:33:34.630Z,8.23
2017-09-22T23:36:03.412Z,4.13
2017-09-22T23:38:36.076Z,5.83
2017-09-22T23:41:04.817Z,4.53
2017-09-22T23:43:33.567Z,4.10
2017-09-22T23:46:02.357Z,4.47
2017-09-22T23:48:33.641Z,5.10
2017-09-22T23:51:02.459Z,4.57
2017-09-22T23:53:31.185Z,4.53
2017-09-22T23:55:59.805Z,4.40
2017-09-22T23:58:28.569Z,3.90
